Time;durP1;ratioP1;P1;durP2;ratioP2;P2;SDS_P1;SDS_P2;PMS_P1;PMS_P2;Temp;Humidity;BMP_temperature;BMP_pressure;BME280_temperature;BME280_humidity;BME280_pressure;Samples;Min_cycle;Max_cycle;Signal;HPM_P1;HPM_P2
2022/01/25 00:08:54;;;;;;;5.97;4.53;;;;;;;;;;5073608;28;20415;-81
2022/01/25 00:25:11;;;;;;;7.23;4.93;;;;;;;;;;5073282;28;20410;-80
2022/01/25 00:27:47;;;;;;;8.07;5.30;;;;;;;;;;5073264;28;20452;-80
2022/01/25 00:32:58;;;;;;;7.13;5.50;;;;;;;;;;5073064;28;20534;-81
2022/01/25 00:35:26;;;;;;;9.03;5.93;;;;;;;;;;5072839;28;20447;-82
2022/01/25 00:37:56;;;;;;;8.07;6.00;;;;;;;;;;5072661;28;20501;-81
2022/01/25 00:40:23;;;;;;;9.57;6.67;;;;;;;;;;5073095;28;20466;-81
2022/01/25 00:42:52;;;;;;;7.30;5.70;;;;;;;;;;5072649;28;20443;-80
2022/01/25 00:45:20;;;;;;;7.87;5.43;;;;;;;;;;5073042;28;20444;-81
2022/01/25 00:47:54;;;;;;;5.70;5.10;;;;;;;;;;5072693;28;20462;-81
2022/01/25 00:50:22;;;;;;;5.73;5.07;;;;;;;;;;5072066;28;20497;-80
2022/01/25 00:55:34;;;;;;;6.83;5.57;;;;;;;;;;5072684;28;20606;-81
2022/01/25 00:58:04;;;;;;;8.13;6.13;;;;;;;;;;5072662;28;20895;-81
2022/01/25 01:00:34;;;;;;;7.60;5.10;;;;;;;;;;5072467;28;20474;-81
2022/01/25 01:03:01;;;;;;;5.87;4.80;;;;;;;;;;5072779;28;20446;-81
2022/01/25 01:05:28;;;;;;;6.97;5.60;;;;;;;;;;5072318;28;20995;-81
2022/01/25 01:07:56;;;;;;;5.30;4.73;;;;;;;;;;5072310;28;20453;-81
2022/01/25 01:10:25;;;;;;;5.33;4.83;;;;;;;;;;5072446;28;20475;-81
2022/01/25 01:13:29;;;;;;;6.50;5.80;;;;;;;;;;5072521;28;20479;-81
2022/01/25 01:16:08;;;;;;;9.07;5.50;;;;;;;;;;5072238;28;20948;-81
2022/01/25 01:29:49;;;;;;;8.60;5.70;;;;;;;;;;5072415;28;20491;-82
2022/01/25 01:32:43;;;;;;;6.63;4.77;;;;;;;;;;5072270;28;20467;-81
2022/01/25 01:41:20;;;;;;;6.17;4.60;;;;;;;;;;5151841;27;20537;-81
2022/01/25 01:43:55;;;;;;;9.53;4.97;;;;;;;;;;5150896;27;20530;-82
2022/01/25 01:46:34;;;;;;;6.87;4.77;;;;;;;;;;5151214;27;20434;-82
2022/01/25 01:49:03;;;;;;;7.37;5.33;;;;;;;;;;5151371;27;20432;-82
2022/01/25 01:51:34;;;;;;;5.77;4.20;;;;;;;;;;5150956;27;20436;-82
2022/01/25 01:54:03;;;;;;;5.80;4.93;;;;;;;;;;5151454;27;20446;-82
2022/01/25 01:56:32;;;;;;;7.27;5.00;;;;;;;;;;5150998;27;20441;-82
2022/01/25 01:59:09;;;;;;;6.50;4.93;;;;;;;;;;5150849;27;20561;-82
2022/01/25 02:01:37;;;;;;;6.23;5.07;;;;;;;;;;5151157;27;20811;-81
2022/01/25 02:04:06;;;;;;;5.97;4.67;;;;;;;;;;5150590;27;20530;-81
2022/01/25 02:06:33;;;;;;;6.03;4.17;;;;;;;;;;5150704;27;20446;-81
2022/01/25 02:09:01;;;;;;;5.23;3.90;;;;;;;;;;5150736;27;20445;-82
2022/01/25 02:11:39;;;;;;;6.77;4.20;;;;;;;;;;5150551;27;20530;-81
2022/01/25 02:14:09;;;;;;;6.10;5.07;;;;;;;;;;5150682;27;20797;-81
2022/01/25 02:16:44;;;;;;;7.37;5.13;;;;;;;;;;5150348;27;20443;-81
2022/01/25 02:24:48;;;;;;;6.23;4.50;;;;;;;;;;5150531;27;20548;-82
2022/01/25 02:27:16;;;;;;;6.50;4.47;;;;;;;;;;5150152;27;20513;-82
2022/01/25 02:29:44;;;;;;;9.00;5.87;;;;;;;;;;5150036;27;20471;-81
2022/01/25 02:32:11;;;;;;;4.13;3.70;;;;;;;;;;5150104;27;20527;-82
2022/01/25 02:34:38;;;;;;;6.03;4.90;;;;;;;;;;5150075;27;20974;-81
2022/01/25 02:37:10;;;;;;;7.87;5.23;;;;;;;;;;5150202;27;20847;-81
2022/01/25 02:39:46;;;;;;;6.50;4.77;;;;;;;;;;5149670;27;20565;-81
2022/01/25 02:42:15;;;;;;;6.33;5.43;;;;;;;;;;5149836;27;20541;-82
2022/01/25 02:44:44;;;;;;;7.03;5.37;;;;;;;;;;5149738;27;20449;-81
2022/01/25 02:50:06;;;;;;;7.73;4.90;;;;;;;;;;5149594;27;20399;-82
2022/01/25 02:52:35;;;;;;;7.70;4.70;;;;;;;;;;5135702;27;20420;-82
2022/01/25 02:55:02;;;;;;;5.83;4.57;;;;;;;;;;5135783;27;20948;-81
2022/01/25 02:57:35;;;;;;;4.93;4.47;;;;;;;;;;5135829;27;20424;-81
2022/01/25 03:00:07;;;;;;;6.17;4.67;;;;;;;;;;5135622;27;20477;-81
2022/01/25 03:02:34;;;;;;;6.83;4.87;;;;;;;;;;5135826;27;20425;-82
2022/01/25 03:05:05;;;;;;;7.30;5.17;;;;;;;;;;5135946;27;20440;-81
2022/01/25 03:07:33;;;;;;;10.13;4.97;;;;;;;;;;5135594;27;20440;-81
2022/01/25 03:10:02;;;;;;;5.87;4.23;;;;;;;;;;5135814;27;20440;-82
2022/01/25 03:12:37;;;;;;;6.07;4.20;;;;;;;;;;5127682;27;20460;-81
2022/01/25 03:15:24;;;;;;;7.93;4.80;;;;;;;;;;5116380;27;20448;-81
2022/01/25 03:17:57;;;;;;;6.20;5.27;;;;;;;;;;5114826;28;20436;-81
2022/01/25 03:20:37;;;;;;;11.20;5.50;;;;;;;;;;5115014;28;20461;-80
2022/01/25 03:23:16;;;;;;;4.77;4.33;;;;;;;;;;5115108;28;20819;-81
2022/01/25 03:25:47;;;;;;;4.83;4.33;;;;;;;;;;5127919;27;20960;-81
2022/01/25 03:28:14;;;;;;;6.63;4.57;;;;;;;;;;5115023;28;20434;-81
2022/01/25 03:30:42;;;;;;;7.27;4.87;;;;;;;;;;5119429;27;20468;-81
2022/01/25 03:33:09;;;;;;;5.63;4.40;;;;;;;;;;5126262;27;20451;-81
2022/01/25 03:35:39;;;;;;;7.60;5.10;;;;;;;;;;5134929;27;20541;-81
2022/01/25 03:38:10;;;;;;;5.93;4.83;;;;;;;;;;5133983;27;20932;-81
2022/01/25 03:40:37;;;;;;;13.00;6.70;;;;;;;;;;5133129;27;20496;-81
2022/01/25 03:43:09;;;;;;;9.13;5.87;;;;;;;;;;5134231;27;20454;-80
2022/01/25 03:45:39;;;;;;;7.43;5.30;;;;;;;;;;5134846;27;20448;-81
2022/01/25 03:50:50;;;;;;;9.70;6.23;;;;;;;;;;5134693;27;20416;-81
2022/01/25 03:53:19;;;;;;;21.83;16.13;;;;;;;;;;5135683;27;20801;-81
2022/01/25 03:55:53;;;;;;;11.53;8.47;;;;;;;;;;5134734;27;20451;-81
2022/01/25 03:58:21;;;;;;;9.23;5.17;;;;;;;;;;5134577;27;20440;-81
2022/01/25 04:00:50;;;;;;;5.70;4.87;;;;;;;;;;5134549;27;20514;-81
2022/01/25 04:03:27;;;;;;;7.00;5.30;;;;;;;;;;5133813;27;20468;-81
2022/01/25 04:05:57;;;;;;;5.63;4.47;;;;;;;;;;5134444;27;20436;-81
2022/01/25 04:08:30;;;;;;;5.47;4.50;;;;;;;;;;5134417;27;20433;-81
2022/01/25 04:10:57;;;;;;;7.07;5.33;;;;;;;;;;5134340;27;20789;-81
2022/01/25 04:13:44;;;;;;;4.57;4.17;;;;;;;;;;5134848;27;20479;-81
2022/01/25 04:16:27;;;;;;;5.93;4.73;;;;;;;;;;5135357;27;20456;-81
2022/01/25 04:19:02;;;;;;;4.60;3.87;;;;;;;;;;5134266;27;20435;-81
2022/01/25 04:27:07;;;;;;;5.03;4.13;;;;;;;;;;5095607;27;20433;-84
2022/01/25 04:29:35;;;;;;;9.70;5.63;;;;;;;;;;5132850;27;20855;-80
2022/01/25 04:32:05;;;;;;;12.73;9.80;;;;;;;;;;5132872;27;20440;-82
2022/01/25 04:34:43;;;;;;;5.70;5.10;;;;;;;;;;5133015;27;20443;-82
2022/01/25 04:51:21;;;;;;;6.10;4.03;;;;;;;;;;5129801;27;20471;-84
2022/01/25 04:53:55;;;;;;;9.17;4.00;;;;;;;;;;5132516;27;20429;-84
2022/01/25 04:56:28;;;;;;;5.67;4.07;;;;;;;;;;5131975;27;20427;-83
2022/01/25 04:59:02;;;;;;;4.90;3.97;;;;;;;;;;5132621;27;20454;-82
2022/01/25 05:01:31;;;;;;;5.80;4.30;;;;;;;;;;5132924;27;20460;-85
2022/01/25 05:04:03;;;;;;;5.10;4.43;;;;;;;;;;5131964;27;20818;-83
2022/01/25 05:06:32;;;;;;;7.00;5.50;;;;;;;;;;5131691;27;20425;-82
2022/01/25 05:09:07;;;;;;;7.23;5.90;;;;;;;;;;5133424;27;20444;-82
2022/01/25 05:11:38;;;;;;;7.90;6.43;;;;;;;;;;5133189;27;20917;-82
2022/01/25 05:16:58;;;;;;;9.47;6.60;;;;;;;;;;5127876;27;20464;-81
2022/01/25 05:22:19;;;;;;;5.07;4.43;;;;;;;;;;5111697;27;20820;-80
2022/01/25 05:24:47;;;;;;;5.03;4.47;;;;;;;;;;5133373;27;20483;-81
2022/01/25 05:27:17;;;;;;;8.97;5.00;;;;;;;;;;5133136;27;20444;-80
2022/01/25 05:29:44;;;;;;;7.83;4.50;;;;;;;;;;5133085;27;20425;-81
2022/01/25 05:32:13;;;;;;;5.60;4.37;;;;;;;;;;5133451;27;20874;-81
2022/01/25 05:34:41;;;;;;;5.33;4.23;;;;;;;;;;5133061;27;20458;-80
2022/01/25 05:37:08;;;;;;;5.60;5.00;;;;;;;;;;5132998;27;20523;-81
2022/01/25 05:39:37;;;;;;;4.83;4.33;;;;;;;;;;5132677;27;20480;-80
2022/01/25 05:42:25;;;;;;;7.50;5.90;;;;;;;;;;5132915;27;20428;-80
2022/01/25 05:44:57;;;;;;;7.70;6.13;;;;;;;;;;5133074;27;20862;-80
2022/01/25 05:47:29;;;;;;;7.40;5.77;;;;;;;;;;5132956;27;20428;-80
2022/01/25 05:49:57;;;;;;;5.83;4.50;;;;;;;;;;5132976;27;21000;-80
2022/01/25 05:52:25;;;;;;;5.33;4.10;;;;;;;;;;5132844;27;20483;-80
2022/01/25 05:54:52;;;;;;;7.63;5.17;;;;;;;;;;5133000;27;20440;-80
2022/01/25 05:57:19;;;;;;;9.87;4.60;;;;;;;;;;5132827;27;20483;-80
2022/01/25 05:59:46;;;;;;;17.33;13.60;;;;;;;;;;5132925;27;20956;-80
2022/01/25 06:02:17;;;;;;;13.67;11.37;;;;;;;;;;5132807;28;20523;-80
2022/01/25 06:04:47;;;;;;;11.33;8.50;;;;;;;;;;5132868;28;20439;-80
2022/01/25 06:07:14;;;;;;;12.20;8.93;;;;;;;;;;5132843;27;20432;-80
2022/01/25 06:09:41;;;;;;;25.47;13.57;;;;;;;;;;5132849;27;20492;-80
2022/01/25 06:12:10;;;;;;;46.60;25.63;;;;;;;;;;5133293;28;20434;-80
2022/01/25 06:14:37;;;;;;;24.83;18.73;;;;;;;;;;5132564;28;20451;-80
2022/01/25 06:17:05;;;;;;;53.30;30.27;;;;;;;;;;5132713;28;20445;-80
2022/01/25 06:19:32;;;;;;;27.83;19.17;;;;;;;;;;5132581;27;20444;-80
2022/01/25 06:22:01;;;;;;;52.17;25.47;;;;;;;;;;5132428;28;20528;-81
2022/01/25 06:24:28;;;;;;;37.87;23.10;;;;;;;;;;5132557;28;20956;-80
2022/01/25 06:26:55;;;;;;;25.17;15.33;;;;;;;;;;5135303;27;20538;-81
2022/01/25 06:29:23;;;;;;;12.43;9.47;;;;;;;;;;5136359;27;20444;-80
2022/01/25 06:31:50;;;;;;;7.40;6.57;;;;;;;;;;5136330;27;20520;-81
2022/01/25 06:34:17;;;;;;;8.80;7.60;;;;;;;;;;5136307;27;20886;-81
2022/01/25 06:36:46;;;;;;;23.47;13.13;;;;;;;;;;5136278;27;20440;-80
2022/01/25 06:39:15;;;;;;;15.20;12.60;;;;;;;;;;5136010;27;20484;-80
2022/01/25 06:41:42;;;;;;;26.10;14.33;;;;;;;;;;5135958;27;21025;-81
2022/01/25 06:44:09;;;;;;;12.03;9.47;;;;;;;;;;5135998;27;20440;-81
2022/01/25 06:46:36;;;;;;;8.40;6.03;;;;;;;;;;5136381;27;20444;-80
2022/01/25 06:49:04;;;;;;;6.50;5.07;;;;;;;;;;5136039;27;20535;-81
2022/01/25 06:51:32;;;;;;;9.10;6.33;;;;;;;;;;5135988;27;20428;-81
2022/01/25 06:53:59;;;;;;;6.70;5.43;;;;;;;;;;5136156;27;20955;-81
2022/01/25 06:56:27;;;;;;;13.43;9.90;;;;;;;;;;5136210;27;20451;-81
2022/01/25 06:58:55;;;;;;;13.83;9.70;;;;;;;;;;5136048;27;20436;-79
2022/01/25 07:01:22;;;;;;;6.20;4.90;;;;;;;;;;5135658;27;20479;-81
2022/01/25 07:03:49;;;;;;;5.63;4.60;;;;;;;;;;5136383;27;20971;-81
2022/01/25 07:06:16;;;;;;;8.97;4.73;;;;;;;;;;5134720;27;20443;-81
2022/01/25 07:08:45;;;;;;;6.77;5.10;;;;;;;;;;5133868;27;20956;-81
2022/01/25 07:11:12;;;;;;;7.47;5.43;;;;;;;;;;5135129;27;20527;-81
2022/01/25 07:13:41;;;;;;;7.23;5.63;;;;;;;;;;5135425;27;20469;-81
2022/01/25 07:16:09;;;;;;;6.30;4.70;;;;;;;;;;5135494;27;20451;-81
2022/01/25 07:18:36;;;;;;;9.77;4.90;;;;;;;;;;5135403;27;20436;-81
2022/01/25 07:21:04;;;;;;;5.97;4.13;;;;;;;;;;5135322;27;20472;-82
2022/01/25 07:23:31;;;;;;;9.93;5.80;;;;;;;;;;5135444;27;20453;-81
2022/01/25 07:25:58;;;;;;;5.67;4.83;;;;;;;;;;5135496;27;20429;-81
2022/01/25 07:28:25;;;;;;;5.20;4.70;;;;;;;;;;5135299;27;20446;-81
2022/01/25 07:30:54;;;;;;;8.17;5.37;;;;;;;;;;5135187;27;20447;-81
2022/01/25 07:33:21;;;;;;;5.07;4.57;;;;;;;;;;5135168;27;20602;-81
2022/01/25 07:35:49;;;;;;;6.20;4.70;;;;;;;;;;5135114;27;20527;-81
2022/01/25 07:38:16;;;;;;;7.47;5.77;;;;;;;;;;5134989;27;21008;-82
2022/01/25 07:40:44;;;;;;;7.03;5.07;;;;;;;;;;5134780;27;20520;-81
2022/01/25 07:43:11;;;;;;;4.70;4.30;;;;;;;;;;5135272;27;20448;-81
2022/01/25 07:45:41;;;;;;;7.80;4.60;;;;;;;;;;5134961;27;20443;-81
2022/01/25 07:48:11;;;;;;;4.83;4.33;;;;;;;;;;5134865;27;20497;-81
2022/01/25 07:50:39;;;;;;;5.30;4.10;;;;;;;;;;5135329;27;20428;-81
2022/01/25 07:53:06;;;;;;;4.43;3.70;;;;;;;;;;5135083;27;20910;-81
2022/01/25 07:55:34;;;;;;;4.50;3.93;;;;;;;;;;5134719;27;20429;-81
2022/01/25 07:58:01;;;;;;;4.90;4.37;;;;;;;;;;5134648;27;21006;-81
2022/01/25 08:00:28;;;;;;;5.23;4.10;;;;;;;;;;5134465;27;20468;-81
2022/01/25 08:02:56;;;;;;;8.37;4.90;;;;;;;;;;5134526;27;20428;-81
2022/01/25 08:05:26;;;;;;;5.70;5.13;;;;;;;;;;5134709;27;20445;-81
2022/01/25 08:07:53;;;;;;;5.23;3.80;;;;;;;;;;5134444;27;20432;-81
2022/01/25 08:10:21;;;;;;;7.20;4.50;;;;;;;;;;5134453;27;20440;-82
2022/01/25 08:12:48;;;;;;;6.23;5.37;;;;;;;;;;5134326;27;21021;-82
2022/01/25 08:15:16;;;;;;;8.57;5.20;;;;;;;;;;5134609;27;20437;-83
2022/01/25 08:17:44;;;;;;;7.17;4.93;;;;;;;;;;5134295;27;20440;-82
2022/01/25 08:20:12;;;;;;;8.17;5.77;;;;;;;;;;5134254;27;20435;-82
2022/01/25 08:22:41;;;;;;;9.37;7.13;;;;;;;;;;5134838;27;20476;-83
2022/01/25 08:25:09;;;;;;;9.20;6.50;;;;;;;;;;5134073;27;20948;-83
2022/01/25 08:27:36;;;;;;;6.97;6.20;;;;;;;;;;5134028;27;20532;-84
2022/01/25 08:30:10;;;;;;;6.60;4.93;;;;;;;;;;5134261;27;20447;-84
2022/01/25 08:32:37;;;;;;;8.43;6.00;;;;;;;;;;5134143;27;20438;-83
2022/01/25 08:35:11;;;;;;;7.13;5.57;;;;;;;;;;5134202;27;20444;-83
2022/01/25 08:37:44;;;;;;;8.07;5.97;;;;;;;;;;5133730;27;20539;-84
2022/01/25 08:40:12;;;;;;;6.27;5.23;;;;;;;;;;5133296;27;20480;-84
2022/01/25 08:42:40;;;;;;;7.37;5.70;;;;;;;;;;5133737;27;20882;-85
2022/01/25 08:45:08;;;;;;;7.23;5.07;;;;;;;;;;5134059;27;20816;-85
2022/01/25 08:47:36;;;;;;;5.30;4.50;;;;;;;;;;5133600;27;20659;-85
2022/01/25 08:50:03;;;;;;;6.60;5.07;;;;;;;;;;5133212;27;20436;-85
2022/01/25 08:52:33;;;;;;;6.57;4.87;;;;;;;;;;5133926;27;20874;-86
2022/01/25 08:55:02;;;;;;;8.90;5.70;;;;;;;;;;5133585;27;20437;-85
2022/01/25 08:57:32;;;;;;;8.60;6.20;;;;;;;;;;5133612;27;20279;-85
2022/01/25 08:59:59;;;;;;;6.07;5.17;;;;;;;;;;5134002;27;20463;-85
2022/01/25 09:02:33;;;;;;;6.30;4.50;;;;;;;;;;5133551;27;20471;-86
2022/01/25 09:05:03;;;;;;;6.13;5.53;;;;;;;;;;5133483;27;20959;-86
2022/01/25 09:07:30;;;;;;;7.87;5.77;;;;;;;;;;5133905;27;20194;-87
2022/01/25 09:09:57;;;;;;;6.17;5.13;;;;;;;;;;5133846;27;20813;-86
2022/01/25 09:12:27;;;;;;;7.40;5.90;;;;;;;;;;5133443;27;20230;-86
2022/01/25 09:14:54;;;;;;;5.93;4.63;;;;;;;;;;5133566;27;20191;-86
2022/01/25 09:17:21;;;;;;;7.63;6.17;;;;;;;;;;5133762;27;20207;-87
2022/01/25 09:19:49;;;;;;;7.23;5.37;;;;;;;;;;5133176;27;20212;-87
2022/01/25 09:22:16;;;;;;;4.07;3.67;;;;;;;;;;5133976;27;20305;-87
2022/01/25 09:24:43;;;;;;;5.23;4.03;;;;;;;;;;5134042;27;20252;-87
2022/01/25 09:27:19;;;;;;;7.80;5.97;;;;;;;;;;5133374;27;20777;-87
2022/01/25 09:29:57;;;;;;;5.33;3.93;;;;;;;;;;5133505;27;20229;-87
2022/01/25 09:32:24;;;;;;;6.97;5.60;;;;;;;;;;5133476;27;20229;-87
2022/01/25 09:35:05;;;;;;;3.93;3.63;;;;;;;;;;5133990;27;20685;-88
2022/01/25 09:37:42;;;;;;;7.67;4.93;;;;;;;;;;5134201;27;20194;-88
2022/01/25 09:40:12;;;;;;;6.37;4.47;;;;;;;;;;5131861;27;20249;-87
2022/01/25 09:42:39;;;;;;;5.93;5.27;;;;;;;;;;5133271;27;20279;-87
2022/01/25 09:45:11;;;;;;;5.33;4.53;;;;;;;;;;5133539;27;20191;-88
2022/01/25 09:47:39;;;;;;;6.97;4.60;;;;;;;;;;5133211;27;20277;-88
2022/01/25 09:50:07;;;;;;;4.47;3.77;;;;;;;;;;5133387;27;20195;-87
2022/01/25 09:52:35;;;;;;;5.53;4.30;;;;;;;;;;5133556;27;20207;-88
2022/01/25 09:55:02;;;;;;;7.17;4.77;;;;;;;;;;5133532;27;20555;-87
2022/01/25 09:57:35;;;;;;;4.27;3.73;;;;;;;;;;5133000;27;20200;-88
2022/01/25 10:00:03;;;;;;;4.87;3.63;;;;;;;;;;5133797;27;20205;-88
2022/01/25 10:02:48;;;;;;;4.70;4.30;;;;;;;;;;5137178;27;20308;-88
2022/01/25 10:05:27;;;;;;;5.10;4.30;;;;;;;;;;5137681;27;20218;-88
2022/01/25 10:07:59;;;;;;;3.97;3.60;;;;;;;;;;5137511;27;20289;-88
2022/01/25 10:10:27;;;;;;;4.50;4.07;;;;;;;;;;5137599;27;20200;-88
2022/01/25 10:13:09;;;;;;;3.90;3.50;;;;;;;;;;5137601;27;20662;-89
2022/01/25 10:15:36;;;;;;;9.47;3.10;;;;;;;;;;5116403;28;20233;-88
2022/01/25 10:18:11;;;;;;;5.13;4.10;;;;;;;;;;5117067;28;20673;-88
2022/01/25 10:20:41;;;;;;;4.20;3.77;;;;;;;;;;5116880;28;20206;-88
2022/01/25 10:23:14;;;;;;;4.73;3.67;;;;;;;;;;5116947;28;20588;-88
2022/01/25 10:25:43;;;;;;;6.03;3.80;;;;;;;;;;5116683;28;20210;-88
2022/01/25 10:28:12;;;;;;;5.10;3.93;;;;;;;;;;5117275;28;20536;-87
2022/01/25 10:30:43;;;;;;;4.03;3.60;;;;;;;;;;5116721;28;20630;-88
2022/01/25 10:33:28;;;;;;;3.00;2.70;;;;;;;;;;5116522;28;20653;-88
2022/01/25 10:36:11;;;;;;;3.13;2.80;;;;;;;;;;5116537;28;20210;-89
2022/01/25 10:38:44;;;;;;;4.87;3.80;;;;;;;;;;5116131;28;20202;-88
2022/01/25 10:41:14;;;;;;;3.80;3.50;;;;;;;;;;5115937;28;20191;-88
2022/01/25 10:43:42;;;;;;;5.20;4.10;;;;;;;;;;5116265;28;20211;-88
2022/01/25 10:46:17;;;;;;;5.43;3.93;;;;;;;;;;5116749;28;20248;-88
2022/01/25 10:48:56;;;;;;;3.67;3.37;;;;;;;;;;5116098;28;20278;-88
2022/01/25 10:51:38;;;;;;;3.57;3.20;;;;;;;;;;5116484;28;20190;-87
2022/01/25 10:54:13;;;;;;;5.43;3.80;;;;;;;;;;5116373;28;20202;-88
2022/01/25 10:56:45;;;;;;;5.30;4.00;;;;;;;;;;5115904;28;20205;-88
2022/01/25 10:59:16;;;;;;;5.83;4.60;;;;;;;;;;5115803;28;20270;-88
2022/01/25 11:01:51;;;;;;;4.97;3.70;;;;;;;;;;5116042;28;20300;-88
2022/01/25 11:04:34;;;;;;;5.17;4.53;;;;;;;;;;5115784;28;20209;-88
2022/01/25 11:07:03;;;;;;;4.07;3.60;;;;;;;;;;5115983;28;20207;-87
2022/01/25 11:09:36;;;;;;;3.87;3.30;;;;;;;;;;5115587;28;20219;-88
2022/01/25 11:12:16;;;;;;;5.63;4.00;;;;;;;;;;5115468;28;20199;-88
2022/01/25 11:14:54;;;;;;;4.37;3.97;;;;;;;;;;5115302;28;20223;-88
2022/01/25 11:17:29;;;;;;;6.00;4.33;;;;;;;;;;5115315;28;20196;-88
2022/01/25 11:19:59;;;;;;;5.13;4.63;;;;;;;;;;5115889;27;20183;-87
2022/01/25 11:22:29;;;;;;;4.77;3.70;;;;;;;;;;5115251;28;20302;-88
2022/01/25 11:24:58;;;;;;;6.60;3.60;;;;;;;;;;5115277;28;20592;-88
2022/01/25 11:27:27;;;;;;;6.97;5.33;;;;;;;;;;5115987;28;20640;-88
2022/01/25 11:29:57;;;;;;;6.73;4.77;;;;;;;;;;5114975;28;20191;-88
2022/01/25 11:32:26;;;;;;;8.40;7.10;;;;;;;;;;5115112;28;20198;-88
2022/01/25 11:35:06;;;;;;;4.87;4.07;;;;;;;;;;5115171;28;20192;-88
2022/01/25 11:37:38;;;;;;;7.57;6.40;;;;;;;;;;5115790;28;20631;-88
2022/01/25 11:40:21;;;;;;;4.93;3.80;;;;;;;;;;5114780;28;20231;-88
2022/01/25 11:42:55;;;;;;;24.67;13.67;;;;;;;;;;5114938;28;20211;-88
2022/01/25 11:45:24;;;;;;;10.90;8.03;;;;;;;;;;5114854;28;20194;-88
2022/01/25 11:47:52;;;;;;;4.50;3.10;;;;;;;;;;5114854;28;20202;-88
2022/01/25 11:50:26;;;;;;;5.73;4.80;;;;;;;;;;5114891;28;20195;-88
2022/01/25 11:52:55;;;;;;;4.83;3.90;;;;;;;;;;5115070;28;20192;-88
2022/01/25 11:55:34;;;;;;;4.07;3.67;;;;;;;;;;5114659;27;20191;-88
2022/01/25 11:58:04;;;;;;;4.40;4.00;;;;;;;;;;5114625;28;20659;-88
2022/01/25 12:00:42;;;;;;;5.33;4.17;;;;;;;;;;5115170;28;20288;-88
2022/01/25 12:03:31;;;;;;;7.43;4.53;;;;;;;;;;5115174;28;20218;-88
2022/01/25 12:06:06;;;;;;;5.17;4.00;;;;;;;;;;5114081;28;20723;-88
2022/01/25 12:09:31;;;;;;;5.70;3.47;;;;;;;;;;5114699;28;20195;-88
2022/01/25 12:12:10;;;;;;;6.57;4.23;;;;;;;;;;5114342;28;20190;-88
2022/01/25 12:14:47;;;;;;;5.83;3.50;;;;;;;;;;5114372;28;20211;-88
2022/01/25 12:17:18;;;;;;;5.30;4.20;;;;;;;;;;5114528;28;20199;-86
2022/01/25 12:19:48;;;;;;;5.47;4.37;;;;;;;;;;5114137;28;20675;-86
2022/01/25 12:22:42;;;;;;;3.53;3.17;;;;;;;;;;5113868;28;20223;-86
2022/01/25 12:25:23;;;;;;;3.67;3.27;;;;;;;;;;5057410;28;20284;-86
2022/01/25 12:28:07;;;;;;;5.93;3.60;;;;;;;;;;5114173;28;20699;-86
2022/01/25 12:30:42;;;;;;;6.33;4.00;;;;;;;;;;5114227;28;20191;-86
2022/01/25 12:33:21;;;;;;;5.93;3.10;;;;;;;;;;5114120;28;20195;-86
2022/01/25 12:35:49;;;;;;;6.67;5.90;;;;;;;;;;5113910;28;20222;-86
2022/01/25 12:38:26;;;;;;;5.30;4.70;;;;;;;;;;5114051;28;20199;-87
2022/01/25 12:40:56;;;;;;;5.00;4.23;;;;;;;;;;5113566;28;20319;-86
2022/01/25 12:43:34;;;;;;;3.13;2.83;;;;;;;;;;5113554;28;20246;-87
2022/01/25 12:46:06;;;;;;;3.77;2.90;;;;;;;;;;5113584;28;20226;-86
2022/01/25 12:48:35;;;;;;;4.93;3.87;;;;;;;;;;5113572;28;20618;-87
2022/01/25 12:51:06;;;;;;;5.77;4.63;;;;;;;;;;5113729;28;20245;-87
2022/01/25 12:53:36;;;;;;;4.97;3.67;;;;;;;;;;5113574;28;20195;-87
2022/01/25 12:56:06;;;;;;;5.20;4.20;;;;;;;;;;5113402;28;20648;-87
2022/01/25 12:58:34;;;;;;;6.27;5.47;;;;;;;;;;5113546;28;20190;-87
2022/01/25 13:01:05;;;;;;;3.93;3.57;;;;;;;;;;5113464;28;20278;-87
2022/01/25 13:03:34;;;;;;;11.90;6.63;;;;;;;;;;5113269;28;20238;-87
2022/01/25 13:06:09;;;;;;;8.77;6.87;;;;;;;;;;5113328;28;20199;-86
2022/01/25 13:08:47;;;;;;;4.27;3.83;;;;;;;;;;5113320;28;20187;-87
2022/01/25 13:11:26;;;;;;;7.83;5.70;;;;;;;;;;5113432;28;20201;-86
2022/01/25 13:14:02;;;;;;;7.07;4.83;;;;;;;;;;5113223;28;20199;-87
2022/01/25 13:16:40;;;;;;;5.20;4.30;;;;;;;;;;5113375;28;20194;-87
2022/01/25 13:19:11;;;;;;;6.33;4.97;;;;;;;;;;5112883;28;20191;-87
2022/01/25 13:21:40;;;;;;;5.47;4.87;;;;;;;;;;5113794;28;20728;-87
2022/01/25 13:24:19;;;;;;;5.10;4.10;;;;;;;;;;5112798;28;20215;-87
2022/01/25 13:26:58;;;;;;;4.80;4.23;;;;;;;;;;5113140;28;20202;-87
2022/01/25 13:32:18;;;;;;;4.87;3.33;;;;;;;;;;5113093;28;20667;-87
2022/01/25 13:35:00;;;;;;;4.90;3.50;;;;;;;;;;5112873;28;20190;-87
2022/01/25 13:37:28;;;;;;;3.40;3.20;;;;;;;;;;5112948;28;20180;-87
2022/01/25 13:39:59;;;;;;;3.47;3.10;;;;;;;;;;5112819;28;20321;-87
2022/01/25 13:42:34;;;;;;;3.90;3.30;;;;;;;;;;5112937;28;20738;-87
2022/01/25 13:48:11;;;;;;;6.63;6.00;;;;;;;;;;5112968;28;20305;-87
2022/01/25 13:50:56;;;;;;;4.20;3.23;;;;;;;;;;5112547;28;20290;-87
2022/01/25 13:53:23;;;;;;;3.07;2.70;;;;;;;;;;5112524;28;20636;-87
2022/01/25 13:55:54;;;;;;;4.07;3.67;;;;;;;;;;5112611;28;20199;-87
2022/01/25 13:58:23;;;;;;;4.23;3.50;;;;;;;;;;5112478;28;20669;-87
2022/01/25 14:00:54;;;;;;;5.77;3.60;;;;;;;;;;5112863;28;20255;-87
2022/01/25 14:03:25;;;;;;;4.50;3.87;;;;;;;;;;5112300;28;20223;-87
2022/01/25 14:05:52;;;;;;;4.30;3.60;;;;;;;;;;5112381;28;20188;-87
2022/01/25 14:08:32;;;;;;;4.53;3.53;;;;;;;;;;5112640;28;20191;-86
2022/01/25 14:11:26;;;;;;;4.10;3.70;;;;;;;;;;5112562;28;20180;-87
2022/01/25 14:23:07;;;;;;;4.53;3.80;;;;;;;;;;5112540;28;20256;-87
2022/01/25 14:25:36;;;;;;;4.20;3.80;;;;;;;;;;5112906;28;20200;-87
2022/01/25 14:28:18;;;;;;;4.87;3.57;;;;;;;;;;5112530;28;20202;-87
2022/01/25 14:30:47;;;;;;;3.70;3.23;;;;;;;;;;5112411;28;20245;-88
2022/01/25 14:33:16;;;;;;;3.47;3.00;;;;;;;;;;5112568;28;20195;-87
2022/01/25 14:35:56;;;;;;;5.27;4.30;;;;;;;;;;5112446;28;20192;-87
2022/01/25 14:38:31;;;;;;;7.50;4.50;;;;;;;;;;5112191;28;20282;-86
2022/01/25 14:41:01;;;;;;;4.73;4.00;;;;;;;;;;5112343;28;20309;-87
2022/01/25 14:43:32;;;;;;;4.27;3.33;;;;;;;;;;5112879;28;20212;-88
2022/01/25 14:46:07;;;;;;;4.13;3.73;;;;;;;;;;5112341;28;20218;-87
2022/01/25 14:48:37;;;;;;;3.83;3.30;;;;;;;;;;5115964;28;20201;-87
2022/01/25 14:51:14;;;;;;;3.70;3.30;;;;;;;;;;5116364;28;20225;-88
2022/01/25 14:53:42;;;;;;;6.30;4.20;;;;;;;;;;5116131;28;20662;-88
2022/01/25 14:56:12;;;;;;;4.90;4.07;;;;;;;;;;5116217;28;20226;-87
2022/01/25 15:01:35;;;;;;;5.87;4.47;;;;;;;;;;5116361;28;20556;-87
2022/01/25 15:04:05;;;;;;;3.67;3.27;;;;;;;;;;5115679;28;20223;-87
2022/01/25 15:06:42;;;;;;;5.87;4.07;;;;;;;;;;5116267;28;20188;-88
2022/01/25 15:09:19;;;;;;;4.40;3.03;;;;;;;;;;5115483;28;20282;-87
2022/01/25 15:11:53;;;;;;;3.40;3.10;;;;;;;;;;5115418;28;20195;-87
2022/01/25 15:14:36;;;;;;;11.27;8.13;;;;;;;;;;5115546;28;20187;-87
2022/01/25 15:17:16;;;;;;;6.23;4.17;;;;;;;;;;5115382;28;20200;-87
2022/01/25 15:19:43;;;;;;;6.40;4.60;;;;;;;;;;5115349;28;20278;-86
2022/01/25 15:22:10;;;;;;;4.17;3.73;;;;;;;;;;5115252;28;20219;-86
2022/01/25 15:24:41;;;;;;;6.27;5.50;;;;;;;;;;5114886;28;20310;-85
2022/01/25 15:27:27;;;;;;;6.60;5.17;;;;;;;;;;5114882;28;20260;-86
2022/01/25 15:29:56;;;;;;;5.10;3.93;;;;;;;;;;5114758;28;20188;-84
2022/01/25 15:32:24;;;;;;;5.53;4.43;;;;;;;;;;5114817;28;20192;-84
2022/01/25 15:34:54;;;;;;;5.50;4.07;;;;;;;;;;5114503;27;20703;-84
2022/01/25 15:37:21;;;;;;;69.10;32.93;;;;;;;;;;5114281;28;20554;-86
2022/01/25 15:39:48;;;;;;;34.90;20.30;;;;;;;;;;5114236;28;20223;-84
2022/01/25 15:42:18;;;;;;;25.27;15.50;;;;;;;;;;5114459;28;20235;-83
2022/01/25 15:44:52;;;;;;;12.43;9.53;;;;;;;;;;5115384;28;20570;-84
2022/01/25 15:47:22;;;;;;;12.97;10.00;;;;;;;;;;5114585;28;20678;-83
2022/01/25 15:49:49;;;;;;;19.80;13.30;;;;;;;;;;5114386;28;20187;-83
2022/01/25 15:52:17;;;;;;;9.60;6.93;;;;;;;;;;5114223;28;20674;-84
2022/01/25 15:54:44;;;;;;;12.27;10.93;;;;;;;;;;5114469;28;20195;-83
2022/01/25 15:57:12;;;;;;;7.50;6.03;;;;;;;;;;5113944;28;20668;-83
2022/01/25 15:59:42;;;;;;;9.40;7.80;;;;;;;;;;5114361;28;20641;-83
2022/01/25 16:02:14;;;;;;;9.50;6.70;;;;;;;;;;5114423;28;20199;-83
2022/01/25 16:04:44;;;;;;;6.60;4.93;;;;;;;;;;5114015;28;20204;-83
2022/01/25 16:07:12;;;;;;;11.30;8.77;;;;;;;;;;5114371;28;20588;-83
2022/01/25 16:09:56;;;;;;;12.30;9.17;;;;;;;;;;5113868;28;20192;-83
2022/01/25 16:12:24;;;;;;;6.77;6.17;;;;;;;;;;5113818;28;20192;-82
2022/01/25 16:14:52;;;;;;;7.23;4.77;;;;;;;;;;5113788;28;20282;-83
2022/01/25 16:17:21;;;;;;;4.63;4.20;;;;;;;;;;5113750;28;20190;-82
2022/01/25 16:19:50;;;;;;;9.00;5.00;;;;;;;;;;5113661;28;20664;-82
2022/01/25 16:22:17;;;;;;;6.90;4.90;;;;;;;;;;5113599;28;20686;-82
2022/01/25 16:24:44;;;;;;;5.87;4.60;;;;;;;;;;5113468;28;20268;-82
2022/01/25 16:27:12;;;;;;;4.37;3.97;;;;;;;;;;5113526;28;20191;-82
2022/01/25 16:29:39;;;;;;;8.17;4.93;;;;;;;;;;5113826;28;20290;-82
2022/01/25 16:32:07;;;;;;;4.63;4.13;;;;;;;;;;5113537;28;20192;-82
2022/01/25 16:34:37;;;;;;;6.67;4.20;;;;;;;;;;5113689;28;20191;-82
2022/01/25 16:37:05;;;;;;;4.30;3.90;;;;;;;;;;5113421;28;20198;-82
2022/01/25 16:39:33;;;;;;;5.80;4.63;;;;;;;;;;5113080;28;20241;-82
2022/01/25 16:42:00;;;;;;;6.40;4.77;;;;;;;;;;5113222;28;20231;-82
2022/01/25 16:44:27;;;;;;;6.03;4.50;;;;;;;;;;5113105;28;20696;-82